Time;durP1;ratioP1;P1;durP2;ratioP2;P2;SDS_P1;SDS_P2;PMS_P1;PMS_P2;Temp;Humidity;BMP_temperature;BMP_pressure;BME280_temperature;BME280_humidity;BME280_pressure;Samples;Min_cycle;Max_cycle;Signal;HPM_P1;HPM_P2
2023/03/12 00:00:07;;;;;;;1999.90;999.90;;;-1.20;99.90;;;;;;5051405;28;20448;-65
2023/03/12 00:02:34;;;;;;;1999.90;999.90;;;-1.10;99.90;;;;;;5044430;28;20468;-64
2023/03/12 00:05:01;;;;;;;1999.90;999.90;;;-1.10;99.90;;;;;;5050452;28;20968;-64
2023/03/12 00:07:27;;;;;;;1999.90;999.90;;;-1.00;99.90;;;;;;5048638;28;20492;-64
2023/03/12 00:09:54;;;;;;;1999.90;999.90;;;-1.00;99.90;;;;;;5050632;28;20483;-64
2023/03/12 00:12:22;;;;;;;1999.90;999.90;;;-1.20;99.90;;;;;;5050267;28;20444;-65
2023/03/12 00:14:49;;;;;;;1999.90;999.90;;;-1.20;99.90;;;;;;5051078;28;21030;-65
2023/03/12 00:17:16;;;;;;;1999.90;999.90;;;-1.20;99.90;;;;;;5051025;28;20982;-64
2023/03/12 00:19:44;;;;;;;1999.90;999.90;;;-1.20;99.90;;;;;;5051427;28;20451;-64
2023/03/12 00:22:10;;;;;;;1999.90;999.90;;;-1.10;99.90;;;;;;5050863;28;20466;-66
2023/03/12 00:24:37;;;;;;;1999.90;999.90;;;-1.00;99.90;;;;;;5050079;28;20452;-64
2023/03/12 00:27:04;;;;;;;1999.90;999.90;;;-1.00;99.90;;;;;;5050525;28;20479;-64
2023/03/12 00:29:32;;;;;;;1999.90;999.90;;;-1.10;99.90;;;;;;5050322;28;20490;-64
2023/03/12 00:31:59;;;;;;;1999.90;999.90;;;-1.20;99.90;;;;;;5053047;28;20904;-64
2023/03/12 00:34:26;;;;;;;1999.90;999.90;;;-1.20;99.90;;;;;;5063864;28;20824;-65
2023/03/12 00:36:52;;;;;;;1999.90;999.90;;;-1.30;99.90;;;;;;5049970;28;20499;-64
2023/03/12 00:39:19;;;;;;;1999.90;999.90;;;-1.30;99.90;;;;;;5049316;28;20444;-64
2023/03/12 00:41:46;;;;;;;1999.90;999.90;;;-1.30;99.90;;;;;;5050062;28;20448;-66
2023/03/12 00:44:13;;;;;;;1999.90;999.90;;;-1.30;99.90;;;;;;5045232;28;20451;-64
2023/03/12 00:46:41;;;;;;;1999.90;999.90;;;-1.30;99.90;;;;;;5061595;28;20464;-65
2023/03/12 00:49:08;;;;;;;1999.90;999.90;;;-1.30;99.90;;;;;;5056387;28;20484;-64
2023/03/12 00:51:35;;;;;;;1999.90;999.90;;;-1.30;99.90;;;;;;5049859;28;20487;-65
2023/03/12 00:54:01;;;;;;;1999.90;999.90;;;-1.30;99.90;;;;;;5049720;28;20462;-64
2023/03/12 00:56:28;;;;;;;1999.90;999.90;;;-1.30;99.90;;;;;;5049193;28;20480;-64
2023/03/12 00:58:55;;;;;;;1999.90;999.90;;;-1.30;99.90;;;;;;5050415;28;20448;-67
2023/03/12 01:01:22;;;;;;;1999.90;999.90;;;-1.30;99.90;;;;;;5049497;28;20494;-64
2023/03/12 01:03:51;;;;;;;1999.90;999.90;;;-1.30;99.90;;;;;;5058927;28;20444;-64
2023/03/12 01:06:18;;;;;;;1999.90;999.90;;;-1.30;99.90;;;;;;5068974;28;20467;-64
2023/03/12 01:08:45;;;;;;;1999.90;999.90;;;-1.30;99.90;;;;;;5069383;28;20443;-66
2023/03/12 01:11:13;;;;;;;1999.90;999.90;;;-1.20;99.90;;;;;;5069774;28;20493;-64
2023/03/12 01:13:40;;;;;;;1999.90;999.90;;;-1.10;99.90;;;;;;5069144;28;20501;-65
2023/03/12 01:16:07;;;;;;;1999.90;999.90;;;-1.10;99.90;;;;;;5068928;28;20499;-64
2023/03/12 01:18:35;;;;;;;1999.90;999.90;;;-1.00;99.90;;;;;;5069529;28;20451;-65
2023/03/12 01:21:03;;;;;;;1999.90;999.90;;;-1.00;99.90;;;;;;5070672;28;20450;-64
2023/03/12 01:23:30;;;;;;;1999.90;999.90;;;-1.00;99.90;;;;;;5069955;28;20463;-66
2023/03/12 01:25:58;;;;;;;1999.90;999.90;;;-1.00;99.90;;;;;;5069875;28;20473;-67
2023/03/12 01:28:25;;;;;;;1999.90;999.90;;;-0.90;99.90;;;;;;5069705;28;20451;-67
2023/03/12 01:30:52;;;;;;;1999.90;999.90;;;-1.00;99.90;;;;;;5070591;28;21034;-65
2023/03/12 01:33:21;;;;;;;1999.90;999.90;;;-1.00;99.90;;;;;;5070362;28;20495;-65
2023/03/12 01:35:48;;;;;;;1999.90;999.90;;;-0.90;99.90;;;;;;5070797;28;21185;-66
2023/03/12 01:38:19;;;;;;;1999.90;999.90;;;-0.70;99.90;;;;;;5071655;28;20451;-65
2023/03/12 01:40:46;;;;;;;1999.90;999.90;;;-0.50;99.90;;;;;;5071576;28;20445;-65
2023/03/12 01:43:25;;;;;;;1999.90;999.90;;;-0.50;99.90;;;;;;5070879;28;20969;-67
2023/03/12 01:46:21;;;;;;;1999.90;999.90;;;-0.50;99.90;;;;;;5070993;28;20858;-66
2023/03/12 01:48:53;;;;;;;1999.90;999.90;;;-0.40;99.90;;;;;;5068543;28;20461;-65
2023/03/12 01:51:21;;;;;;;1999.90;999.90;;;-0.40;99.90;;;;;;5070819;28;20482;-65
2023/03/12 01:53:53;;;;;;;1999.90;999.90;;;-0.30;99.90;;;;;;5070328;28;20447;-65
2023/03/12 01:56:21;;;;;;;1999.90;999.90;;;-0.10;99.90;;;;;;5070616;28;21041;-64
2023/03/12 01:58:53;;;;;;;1999.90;999.90;;;-0.10;99.90;;;;;;5072544;28;20447;-65
2023/03/12 02:01:21;;;;;;;1999.90;999.90;;;0.00;99.90;;;;;;5073998;28;20450;-66
2023/03/12 02:03:51;;;;;;;1999.90;999.90;;;0.10;99.90;;;;;;5073690;28;20815;-66
2023/03/12 02:06:22;;;;;;;1999.90;999.90;;;0.20;99.90;;;;;;5072859;28;20470;-66
2023/03/12 02:08:51;;;;;;;1999.90;999.90;;;0.20;99.90;;;;;;5071853;28;20522;-67
2023/03/12 02:11:18;;;;;;;1999.90;999.90;;;0.20;99.90;;;;;;5069898;28;20490;-66
2023/03/12 02:13:44;;;;;;;1999.90;999.90;;;0.30;99.90;;;;;;5070624;28;20453;-65
2023/03/12 02:16:11;;;;;;;1999.90;999.90;;;0.30;99.90;;;;;;5070681;28;20467;-65
2023/03/12 02:18:38;;;;;;;1999.90;999.90;;;0.40;99.90;;;;;;5070618;28;20473;-66
2023/03/12 02:21:14;;;;;;;1999.90;999.90;;;0.40;99.90;;;;;;5070289;28;20474;-67
2023/03/12 02:23:45;;;;;;;1999.90;999.90;;;0.50;99.90;;;;;;5070023;28;20455;-66
2023/03/12 02:26:15;;;;;;;1999.90;999.90;;;0.50;99.90;;;;;;5070166;28;20474;-65
2023/03/12 02:28:44;;;;;;;1999.90;999.90;;;0.50;99.90;;;;;;5071234;28;20439;-65
2023/03/12 02:31:14;;;;;;;1999.90;999.90;;;0.50;99.90;;;;;;5070392;28;20498;-66
2023/03/12 02:33:41;;;;;;;1999.90;999.90;;;0.50;99.90;;;;;;5070626;28;20844;-66
2023/03/12 02:36:09;;;;;;;1999.90;999.90;;;0.50;99.90;;;;;;5070864;28;20475;-66
2023/03/12 02:38:42;;;;;;;1999.90;999.90;;;0.30;99.90;;;;;;5070972;28;21097;-65
2023/03/12 02:41:17;;;;;;;1999.90;999.90;;;0.30;99.90;;;;;;5069952;28;20933;-63
2023/03/12 02:43:45;;;;;;;1999.90;999.90;;;0.30;99.90;;;;;;5069663;28;20446;-67
2023/03/12 02:46:13;;;;;;;1999.90;999.90;;;0.30;99.90;;;;;;5070077;28;20463;-65
2023/03/12 02:48:40;;;;;;;1999.90;999.90;;;0.30;99.90;;;;;;5070151;28;20470;-65
2023/03/12 02:51:07;;;;;;;1999.90;999.90;;;0.20;99.90;;;;;;5070022;28;20479;-65
2023/03/12 02:53:34;;;;;;;1999.90;999.90;;;0.40;99.90;;;;;;5070050;28;20446;-67
2023/03/12 02:56:00;;;;;;;1999.90;999.90;;;0.40;99.90;;;;;;5069974;28;20478;-66
2023/03/12 02:58:29;;;;;;;1999.90;999.90;;;0.50;99.90;;;;;;5070292;28;20454;-65
2023/03/12 03:00:55;;;;;;;1999.90;999.90;;;0.60;99.90;;;;;;5070829;28;20451;-65
2023/03/12 03:03:22;;;;;;;1999.90;999.90;;;0.60;99.90;;;;;;5069665;28;20458;-65
2023/03/12 03:05:49;;;;;;;1999.90;999.90;;;0.50;99.90;;;;;;5070327;28;20467;-65
2023/03/12 03:08:16;;;;;;;1999.90;999.90;;;0.40;99.90;;;;;;5070094;28;21179;-65
2023/03/12 03:10:42;;;;;;;1999.90;999.90;;;0.20;99.90;;;;;;5069759;28;20491;-65
2023/03/12 03:13:09;;;;;;;1999.90;999.90;;;0.20;99.90;;;;;;5069356;28;20454;-64
2023/03/12 03:15:38;;;;;;;1999.90;999.90;;;0.10;99.90;;;;;;5069990;28;20463;-65
2023/03/12 03:18:05;;;;;;;1999.90;999.90;;;0.10;99.90;;;;;;5069442;28;20443;-65
2023/03/12 03:20:32;;;;;;;1999.90;999.90;;;0.10;99.90;;;;;;5070143;28;20454;-66
2023/03/12 03:22:59;;;;;;;1999.90;999.90;;;0.00;99.90;;;;;;5073013;28;20447;-65
2023/03/12 03:25:26;;;;;;;1999.90;999.90;;;0.00;99.90;;;;;;5073303;28;20447;-65
2023/03/12 03:27:53;;;;;;;1999.90;999.90;;;0.20;99.90;;;;;;5073364;28;20446;-66
2023/03/12 03:30:20;;;;;;;1999.90;999.90;;;0.20;99.90;;;;;;5073205;28;20827;-65
2023/03/12 03:32:49;;;;;;;1999.90;999.90;;;0.30;99.90;;;;;;5072970;28;20885;-65
2023/03/12 03:35:16;;;;;;;1999.90;999.90;;;0.30;99.90;;;;;;5072512;28;20447;-67
2023/03/12 03:37:43;;;;;;;1999.90;999.90;;;0.40;99.90;;;;;;5073056;28;20439;-66
2023/03/12 03:40:11;;;;;;;1999.90;999.90;;;0.40;99.90;;;;;;5073266;28;20447;-66
2023/03/12 03:42:39;;;;;;;1999.90;999.90;;;0.50;99.90;;;;;;5072816;28;20451;-66
2023/03/12 03:45:09;;;;;;;1999.90;999.90;;;0.50;99.90;;;;;;5072910;28;20454;-66
2023/03/12 03:47:35;;;;;;;1999.90;999.90;;;0.60;99.90;;;;;;5072681;28;20528;-66
2023/03/12 03:50:06;;;;;;;1999.90;999.90;;;0.70;99.90;;;;;;5072883;28;20489;-65
2023/03/12 03:52:32;;;;;;;1999.90;999.90;;;0.80;99.90;;;;;;5072579;28;20945;-66
2023/03/12 03:54:59;;;;;;;1999.90;999.90;;;0.90;99.90;;;;;;5072874;28;20450;-66
2023/03/12 03:57:26;;;;;;;1999.90;999.90;;;1.00;99.90;;;;;;5072910;28;20467;-65
2023/03/12 03:59:53;;;;;;;1999.90;999.90;;;1.10;99.90;;;;;;5072796;28;20442;-65
2023/03/12 04:02:20;;;;;;;1999.90;999.90;;;1.20;99.90;;;;;;5073048;28;20457;-65
2023/03/12 04:04:47;;;;;;;1999.90;999.90;;;1.30;99.90;;;;;;5072311;28;20971;-65
2023/03/12 04:07:15;;;;;;;1999.90;999.90;;;1.30;99.90;;;;;;5072796;28;21020;-66
2023/03/12 04:09:42;;;;;;;1999.90;999.90;;;1.40;99.90;;;;;;5072369;28;20534;-65
2023/03/12 04:12:09;;;;;;;1999.90;999.90;;;1.50;99.90;;;;;;5072509;28;20483;-66
2023/03/12 04:14:39;;;;;;;1999.90;999.90;;;1.60;99.90;;;;;;5072250;28;20949;-65
2023/03/12 04:17:06;;;;;;;1999.90;999.90;;;1.60;99.90;;;;;;5072202;28;20470;-65
2023/03/12 04:19:33;;;;;;;1999.90;999.90;;;1.70;99.90;;;;;;5071818;28;20454;-65
2023/03/12 04:22:00;;;;;;;1999.90;999.90;;;1.70;99.90;;;;;;5071801;28;20439;-66
2023/03/12 04:24:28;;;;;;;1999.90;999.90;;;1.70;99.90;;;;;;5072121;28;20451;-65
2023/03/12 04:26:55;;;;;;;1999.90;999.90;;;1.60;99.90;;;;;;5072129;28;20474;-66
2023/03/12 04:29:22;;;;;;;1999.90;999.90;;;1.50;99.90;;;;;;5072231;28;20447;-66
2023/03/12 04:31:48;;;;;;;1999.90;999.90;;;1.40;99.90;;;;;;5053898;28;20521;-65
2023/03/12 04:34:15;;;;;;;1999.90;999.90;;;1.40;99.90;;;;;;5051259;28;20459;-65
2023/03/12 04:36:42;;;;;;;1999.90;999.90;;;1.40;99.90;;;;;;5052065;28;20477;-67
2023/03/12 04:39:09;;;;;;;1999.90;999.90;;;1.40;99.90;;;;;;5052030;28;20452;-65
2023/03/12 04:41:37;;;;;;;1999.90;999.90;;;1.50;99.90;;;;;;5052116;28;20448;-65
2023/03/12 04:44:05;;;;;;;1999.90;999.90;;;1.40;99.90;;;;;;5051341;28;20454;-66
2023/03/12 04:46:32;;;;;;;1999.90;999.90;;;1.40;99.90;;;;;;5052180;28;20471;-64
2023/03/12 04:49:01;;;;;;;1999.90;999.90;;;1.60;99.90;;;;;;5051646;28;20434;-66
2023/03/12 04:51:28;;;;;;;1999.90;999.90;;;1.80;99.90;;;;;;5052027;28;21071;-65
2023/03/12 04:53:55;;;;;;;1999.90;999.90;;;1.70;99.90;;;;;;5051618;28;20456;-67
2023/03/12 04:56:22;;;;;;;1999.90;999.90;;;1.70;99.90;;;;;;5052104;28;20475;-65
2023/03/12 04:58:50;;;;;;;1999.90;999.90;;;1.70;99.90;;;;;;5052044;28;20452;-64
2023/03/12 05:01:23;;;;;;;1999.90;999.90;;;1.80;99.90;;;;;;5053211;28;20446;-67
2023/03/12 05:03:50;;;;;;;1999.90;999.90;;;1.90;99.90;;;;;;5053181;28;20440;-65
2023/03/12 05:06:17;;;;;;;1999.90;999.90;;;1.90;99.90;;;;;;5051517;28;20471;-65
2023/03/12 05:08:44;;;;;;;1999.90;999.90;;;2.00;99.90;;;;;;5051609;28;20454;-65
2023/03/12 05:11:10;;;;;;;1999.90;999.90;;;2.10;99.90;;;;;;5051306;28;20613;-65
2023/03/12 05:13:37;;;;;;;1999.90;999.90;;;2.10;99.90;;;;;;5051032;28;20448;-65
2023/03/12 05:16:06;;;;;;;1999.90;999.90;;;2.10;99.90;;;;;;5051437;28;20471;-66
2023/03/12 05:18:33;;;;;;;1999.90;999.90;;;2.20;99.90;;;;;;5050828;28;20965;-65
2023/03/12 05:21:01;;;;;;;1999.90;999.90;;;2.30;99.90;;;;;;5051221;28;20442;-65
2023/03/12 05:23:28;;;;;;;1999.90;999.90;;;2.30;99.90;;;;;;5051250;28;20454;-65
2023/03/12 05:25:55;;;;;;;1999.90;999.90;;;2.20;99.90;;;;;;5051043;28;20475;-65
2023/03/12 05:28:26;;;;;;;1999.90;999.90;;;2.00;99.90;;;;;;5051266;28;21125;-65
2023/03/12 05:30:54;;;;;;;1999.90;999.90;;;1.90;99.90;;;;;;5051156;28;20492;-65
2023/03/12 05:33:22;;;;;;;1999.90;999.90;;;1.90;99.90;;;;;;5050648;28;20440;-65
2023/03/12 05:35:49;;;;;;;1999.90;999.90;;;1.90;99.90;;;;;;5067988;28;20471;-65
2023/03/12 05:38:16;;;;;;;1999.90;999.90;;;1.90;99.90;;;;;;5071146;28;20438;-63
2023/03/12 05:40:43;;;;;;;1999.90;999.90;;;2.00;99.90;;;;;;5071009;28;20470;-66
2023/03/12 05:43:09;;;;;;;1999.90;999.90;;;1.90;99.90;;;;;;5070812;28;20470;-64
2023/03/12 05:45:36;;;;;;;1999.90;999.90;;;2.10;99.90;;;;;;5070699;28;20854;-66
2023/03/12 05:48:03;;;;;;;1999.90;999.90;;;2.20;99.90;;;;;;5070435;28;20827;-66
2023/03/12 05:50:31;;;;;;;1999.90;999.90;;;2.20;99.90;;;;;;5070647;28;20907;-64
2023/03/12 05:52:58;;;;;;;1999.90;999.90;;;2.20;99.90;;;;;;5070694;28;20455;-65
2023/03/12 05:55:25;;;;;;;1999.90;999.90;;;2.30;99.90;;;;;;5070965;28;20453;-65
2023/03/12 05:57:52;;;;;;;1999.90;999.90;;;2.40;99.90;;;;;;5070556;28;20446;-66
2023/03/12 06:00:20;;;;;;;1999.90;999.90;;;2.40;99.90;;;;;;5071137;28;20957;-65
2023/03/12 06:02:47;;;;;;;1999.90;999.90;;;2.50;99.90;;;;;;5070593;28;20447;-65
2023/03/12 06:05:13;;;;;;;1999.90;999.90;;;2.50;99.90;;;;;;5070479;28;20455;-64
2023/03/12 06:07:41;;;;;;;1999.90;999.90;;;2.50;99.90;;;;;;5070748;28;20455;-65
2023/03/12 06:10:10;;;;;;;1999.90;999.90;;;2.60;99.90;;;;;;5071076;28;20457;-65
2023/03/12 06:12:36;;;;;;;1999.90;999.90;;;2.60;99.90;;;;;;5071437;28;20485;-65
2023/03/12 06:15:04;;;;;;;1999.90;999.90;;;2.60;99.90;;;;;;5070734;28;20460;-64
2023/03/12 06:17:31;;;;;;;1999.90;999.90;;;2.70;99.90;;;;;;5070653;28;20477;-65
2023/03/12 06:19:58;;;;;;;1999.90;999.90;;;2.70;99.90;;;;;;5070761;28;20450;-65
2023/03/12 06:22:26;;;;;;;1999.90;999.90;;;2.70;99.90;;;;;;5070442;28;20459;-66
2023/03/12 06:24:54;;;;;;;1999.90;999.90;;;2.70;99.90;;;;;;5071038;28;20447;-65
2023/03/12 06:27:21;;;;;;;1999.90;999.90;;;2.90;99.90;;;;;;5070684;28;20471;-64
2023/03/12 06:29:48;;;;;;;1999.90;999.90;;;2.90;99.90;;;;;;5070373;28;20454;-65
2023/03/12 06:32:15;;;;;;;1999.90;999.90;;;2.90;99.90;;;;;;5070546;28;20479;-66
2023/03/12 06:34:42;;;;;;;1999.90;999.90;;;2.70;99.90;;;;;;5070434;28;20454;-65
2023/03/12 06:37:09;;;;;;;1999.90;999.90;;;2.80;99.90;;;;;;5070823;28;20479;-65
2023/03/12 06:39:36;;;;;;;1999.90;999.90;;;2.80;99.90;;;;;;5070910;28;20877;-66
2023/03/12 06:42:04;;;;;;;1999.90;999.90;;;2.90;99.90;;;;;;5069250;28;20451;-65
2023/03/12 06:44:32;;;;;;;1999.90;999.90;;;3.00;99.90;;;;;;5068519;28;20878;-65
2023/03/12 06:46:59;;;;;;;1999.90;999.90;;;3.00;99.90;;;;;;5070002;28;20467;-65
2023/03/12 06:49:30;;;;;;;1999.90;999.90;;;3.10;99.90;;;;;;5070931;28;20462;-67
2023/03/12 06:51:57;;;;;;;1999.90;999.90;;;3.10;99.90;;;;;;5071188;28;20573;-66
2023/03/12 06:54:24;;;;;;;1999.90;999.90;;;3.20;99.90;;;;;;5069812;28;20454;-66
2023/03/12 06:56:52;;;;;;;1999.90;999.90;;;3.30;99.90;;;;;;5072506;28;20471;-63
2023/03/12 06:59:20;;;;;;;1999.90;999.90;;;3.40;99.90;;;;;;5074795;28;20450;-65
2023/03/12 07:01:47;;;;;;;1999.90;999.90;;;3.50;99.90;;;;;;5074127;28;20447;-63
2023/03/12 07:04:14;;;;;;;1999.90;999.90;;;3.70;99.90;;;;;;5074494;28;20446;-63
2023/03/12 07:06:41;;;;;;;1999.90;999.90;;;3.70;99.90;;;;;;5074252;28;20473;-68
2023/03/12 07:09:07;;;;;;;1999.90;999.90;;;3.70;99.90;;;;;;5074635;28;20933;-65
2023/03/12 07:11:34;;;;;;;1999.90;999.90;;;3.60;99.90;;;;;;5074224;28;20486;-65
2023/03/12 07:14:01;;;;;;;1999.90;999.90;;;3.50;99.90;;;;;;5073821;28;20449;-65
2023/03/12 07:16:30;;;;;;;1999.90;999.90;;;3.40;99.90;;;;;;5074303;28;21177;-65
2023/03/12 07:18:57;;;;;;;1999.90;999.90;;;3.40;99.90;;;;;;5074057;28;20451;-65
2023/03/12 07:21:24;;;;;;;1999.90;999.90;;;3.40;99.90;;;;;;5074291;28;20447;-64
2023/03/12 07:23:51;;;;;;;1999.90;999.90;;;3.50;99.90;;;;;;5073433;28;20457;-67
2023/03/12 07:26:19;;;;;;;1999.90;999.90;;;3.60;99.90;;;;;;5073671;28;20505;-66
2023/03/12 07:28:45;;;;;;;1999.90;999.90;;;3.60;99.90;;;;;;5073661;28;20446;-67
2023/03/12 07:31:12;;;;;;;1999.90;999.90;;;3.70;99.90;;;;;;5073449;28;20489;-66
2023/03/12 07:33:40;;;;;;;1999.90;999.90;;;3.70;99.90;;;;;;5073485;28;20447;-67
2023/03/12 07:36:08;;;;;;;1999.90;999.90;;;3.70;99.90;;;;;;5073109;28;20471;-67
2023/03/12 07:38:35;;;;;;;1999.90;999.90;;;3.70;99.90;;;;;;5073588;28;20447;-66
2023/03/12 07:41:01;;;;;;;1999.90;999.90;;;3.60;99.90;;;;;;5073499;28;20457;-66
2023/03/12 07:43:28;;;;;;;1999.90;999.90;;;3.80;99.90;;;;;;5072834;28;20443;-64
2023/03/12 07:45:55;;;;;;;1999.90;999.90;;;3.90;99.90;;;;;;5073497;28;20467;-66
2023/03/12 07:48:22;;;;;;;1999.90;999.90;;;4.00;99.90;;;;;;5073298;28;20454;-66
2023/03/12 07:50:50;;;;;;;1999.90;999.90;;;4.00;99.90;;;;;;5073178;28;20530;-66
2023/03/12 07:53:17;;;;;;;1999.90;999.90;;;4.10;99.90;;;;;;5072709;28;20483;-66
2023/03/12 07:55:45;;;;;;;1999.90;999.90;;;4.30;99.90;;;;;;5073082;28;20462;-66
2023/03/12 07:58:12;;;;;;;1999.90;999.90;;;4.20;99.90;;;;;;5073278;28;20446;-66
2023/03/12 08:00:39;;;;;;;1999.90;999.90;;;4.40;99.90;;;;;;5073480;28;20446;-67
2023/03/12 08:03:06;;;;;;;1999.90;999.90;;;4.50;99.90;;;;;;5072819;28;20443;-67
2023/03/12 08:05:33;;;;;;;1999.90;999.90;;;4.60;99.90;;;;;;5072946;28;20455;-66
2023/03/12 08:08:01;;;;;;;1999.90;999.90;;;4.70;99.90;;;;;;5073350;28;20545;-66
2023/03/12 08:10:28;;;;;;;1999.90;999.90;;;4.90;99.90;;;;;;5073238;28;20453;-67
2023/03/12 08:12:55;;;;;;;1999.90;999.90;;;4.90;99.90;;;;;;5072537;28;20486;-66
2023/03/12 08:15:21;;;;;;;1999.90;999.90;;;5.00;99.90;;;;;;5072501;28;20465;-67
2023/03/12 08:17:48;;;;;;;1999.90;999.90;;;5.10;99.90;;;;;;5073246;28;20453;-67
2023/03/12 08:20:16;;;;;;;1999.90;999.90;;;5.20;99.90;;;;;;5072803;28;20457;-66
2023/03/12 08:22:43;;;;;;;1999.90;999.90;;;5.30;99.90;;;;;;5072126;28;20439;-66
2023/03/12 08:25:12;;;;;;;1999.90;999.90;;;5.30;99.90;;;;;;5072204;28;20631;-66
2023/03/12 08:27:38;;;;;;;1999.90;999.90;;;5.30;99.90;;;;;;5072312;28;20463;-67
2023/03/12 08:30:06;;;;;;;1999.90;999.90;;;5.40;99.90;;;;;;5072260;28;20485;-67
2023/03/12 08:32:33;;;;;;;1999.90;999.90;;;5.40;99.90;;;;;;5071887;28;20487;-66
2023/03/12 08:35:00;;;;;;;1999.90;999.90;;;5.40;99.90;;;;;;5072555;28;20684;-67
2023/03/12 08:37:27;;;;;;;1999.90;999.90;;;5.50;99.90;;;;;;5073688;28;20487;-66
2023/03/12 08:39:53;;;;;;;1999.90;999.90;;;5.60;99.90;;;;;;5072842;28;20881;-65
2023/03/12 08:42:21;;;;;;;1999.90;999.90;;;5.60;99.90;;;;;;5072205;28;20827;-66
2023/03/12 08:44:48;;;;;;;1999.90;999.90;;;5.50;99.90;;;;;;5071978;28;20968;-67
2023/03/12 08:47:15;;;;;;;1999.90;999.90;;;5.60;99.90;;;;;;5072184;28;20475;-68
2023/03/12 08:49:42;;;;;;;1999.90;999.90;;;5.70;99.90;;;;;;5072520;28;20449;-66
2023/03/12 08:52:08;;;;;;;1999.90;999.90;;;5.80;99.90;;;;;;5071777;28;20485;-66
2023/03/12 08:54:35;;;;;;;1999.90;999.90;;;6.00;99.90;;;;;;5071883;28;20446;-67
2023/03/12 08:57:02;;;;;;;1999.90;999.90;;;6.10;99.90;;;;;;5071994;28;20467;-67
2023/03/12 08:59:30;;;;;;;1999.90;999.90;;;6.20;99.90;;;;;;5072325;28;20831;-67
2023/03/12 09:01:57;;;;;;;1999.90;999.90;;;6.30;99.90;;;;;;5071803;28;20444;-66
2023/03/12 09:04:24;;;;;;;1999.90;999.90;;;6.50;99.90;;;;;;5071464;28;20447;-67
2023/03/12 09:06:51;;;;;;;1999.90;999.90;;;6.80;99.90;;;;;;5071541;28;20485;-67
2023/03/12 09:09:17;;;;;;;1999.90;999.90;;;6.90;99.90;;;;;;5071406;28;20443;-67
2023/03/12 09:11:44;;;;;;;1999.90;999.90;;;7.10;99.90;;;;;;5057929;28;20481;-68
2023/03/12 09:14:11;;;;;;;1999.90;999.90;;;7.10;99.90;;;;;;5050407;28;20452;-65
2023/03/12 09:16:39;;;;;;;1999.90;999.90;;;7.10;99.90;;;;;;5047725;28;20466;-65
2023/03/12 09:19:06;;;;;;;1999.90;999.90;;;7.10;99.90;;;;;;5048976;28;20450;-66
2023/03/12 09:21:33;;;;;;;1999.90;999.90;;;7.10;99.90;;;;;;5050810;28;20428;-66
2023/03/12 09:23:59;;;;;;;1999.90;999.90;;;7.20;99.90;;;;;;5050774;28;20439;-66
2023/03/12 09:26:26;;;;;;;1999.90;999.90;;;7.30;99.90;;;;;;5050839;28;20464;-67
2023/03/12 09:28:53;;;;;;;1999.90;999.90;;;7.60;99.90;;;;;;5051529;28;20444;-66
2023/03/12 09:31:20;;;;;;;1999.90;999.90;;;7.60;99.90;;;;;;5051718;28;20432;-66
2023/03/12 09:33:48;;;;;;;1999.90;999.90;;;7.80;99.90;;;;;;5051068;28;20980;-67
2023/03/12 09:36:15;;;;;;;1999.90;999.90;;;8.10;99.90;;;;;;5050903;28;21691;-66
2023/03/12 09:38:42;;;;;;;1999.90;999.90;;;8.30;99.90;;;;;;5051209;28;20440;-67
2023/03/12 09:41:18;;;;;;;1999.90;999.90;;;8.20;99.90;;;;;;5051437;28;20442;-67
2023/03/12 09:43:51;;;;;;;1999.90;999.90;;;8.30;99.90;;;;;;5050614;28;20458;-67
2023/03/12 09:46:25;;;;;;;1999.90;999.90;;;8.30;99.90;;;;;;5050916;28;20463;-66
2023/03/12 09:48:56;;;;;;;1999.90;999.90;;;8.40;99.90;;;;;;5050808;28;20443;-67
2023/03/12 09:51:30;;;;;;;1999.90;999.90;;;8.50;99.90;;;;;;5051417;28;20436;-66
2023/03/12 09:54:00;;;;;;;1999.90;999.90;;;8.50;99.90;;;;;;5050261;28;20965;-66
2023/03/12 09:56:27;;;;;;;1999.90;999.90;;;8.50;99.90;;;;;;5050905;28;20460;-67
2023/03/12 09:58:55;;;;;;;1999.90;999.90;;;8.80;99.90;;;;;;5051175;28;20432;-66
2023/03/12 10:01:47;;;;;;;1999.90;999.90;;;8.90;99.90;;;;;;5051448;28;20443;-68
2023/03/12 10:04:42;;;;;;;1999.90;999.90;;;8.80;99.90;;;;;;5045749;28;20432;-66
2023/03/12 10:07:16;;;;;;;1999.90;999.90;;;8.80;99.90;;;;;;5037567;28;20464;-67
2023/03/12 10:10:02;;;;;;;1999.90;999.90;;;9.00;99.90;;;;;;5050930;28;20443;-67
2023/03/12 10:12:39;;;;;;;1999.90;999.90;;;9.20;99.90;;;;;;5050302;28;20475;-67
2023/03/12 10:15:21;;;;;;;1999.90;999.90;;;9.60;99.90;;;;;;5053211;28;20444;-66
2023/03/12 10:17:58;;;;;;;1999.90;999.90;;;10.00;99.90;;;;;;5067220;28;20443;-67
2023/03/12 10:20:46;;;;;;;1999.90;999.90;;;10.30;99.90;;;;;;5049254;28;20440;-65
2023/03/12 10:23:22;;;;;;;1999.90;999.90;;;10.40;99.90;;;;;;5049005;28;20872;-60
2023/03/12 10:25:53;;;;;;;1999.90;999.90;;;10.20;99.90;;;;;;5051127;28;20872;-66
2023/03/12 10:28:24;;;;;;;1999.90;999.90;;;10.10;99.90;;;;;;5047729;28;20950;-67
2023/03/12 10:30:54;;;;;;;1999.90;999.90;;;9.90;99.90;;;;;;5050938;28;20797;-66
2023/03/12 10:33:25;;;;;;;1999.90;999.90;;;10.10;99.90;;;;;;5042510;28;20498;-65
2023/03/12 10:35:54;;;;;;;1999.90;999.90;;;10.60;99.90;;;;;;5050130;28;20474;-66
2023/03/12 10:38:27;;;;;;;1999.90;999.90;;;10.80;99.90;;;;;;5053900;28;20448;-66
2023/03/12 10:40:54;;;;;;;1999.90;999.90;;;10.90;99.90;;;;;;5053116;28;20962;-66
2023/03/12 10:43:21;;;;;;;1999.90;999.90;;;10.80;99.90;;;;;;5053691;28;20447;-64
2023/03/12 10:45:57;;;;;;;1999.90;999.90;;;10.40;99.90;;;;;;5053735;28;20833;-66
2023/03/12 10:48:26;;;;;;;1999.90;999.90;;;10.10;99.90;;;;;;5053694;28;20447;-67
2023/03/12 10:51:03;;;;;;;1999.90;999.90;;;9.90;99.90;;;;;;5034141;28;20445;-66
2023/03/12 10:53:32;;;;;;;1999.90;999.90;;;9.70;99.90;;;;;;5039947;28;20481;-68
2023/03/12 10:56:05;;;;;;;1999.90;999.90;;;9.40;99.90;;;;;;5054083;28;20459;-67
2023/03/12 10:58:34;;;;;;;1999.90;999.90;;;9.30;99.90;;;;;;5053137;28;20444;-65
2023/03/12 11:01:03;;;;;;;1999.90;999.90;;;9.10;99.90;;;;;;5054537;28;20440;-67
2023/03/12 11:03:32;;;;;;;1999.90;999.90;;;8.90;99.90;;;;;;5038131;28;20926;-65
2023/03/12 11:06:02;;;;;;;1999.90;999.90;;;8.90;99.90;;;;;;5053229;28;20555;-67
2023/03/12 11:08:31;;;;;;;1999.90;999.90;;;8.70;99.90;;;;;;5053924;28;20935;-66
2023/03/12 11:10:59;;;;;;;1999.90;999.90;;;8.80;99.90;;;;;;5052773;28;20940;-66
2023/03/12 11:13:31;;;;;;;1999.90;999.90;;;9.00;99.90;;;;;;5053655;28;20479;-66
2023/03/12 11:16:00;;;;;;;1999.90;999.90;;;9.10;99.90;;;;;;5052763;28;21013;-66
2023/03/12 11:18:37;;;;;;;1999.90;999.90;;;9.20;99.90;;;;;;5052181;28;20531;-65
2023/03/12 11:21:17;;;;;;;1999.90;999.90;;;9.60;99.90;;;;;;5054507;28;20420;-67
2023/03/12 11:23:47;;;;;;;1999.90;999.90;;;10.00;99.90;;;;;;5047779;28;20498;-67
2023/03/12 11:26:17;;;;;;;1999.90;999.90;;;10.60;99.90;;;;;;5054117;28;20460;-67
2023/03/12 11:28:48;;;;;;;1999.90;999.90;;;11.10;99.90;;;;;;5053968;28;20446;-67
2023/03/12 11:31:23;;;;;;;1999.90;999.90;;;11.70;99.90;;;;;;5058103;28;20473;-68
2023/03/12 11:33:51;;;;;;;1999.90;999.90;;;12.00;99.90;;;;;;5061665;28;20471;-67
2023/03/12 11:36:37;;;;;;;1999.90;999.90;;;12.20;99.90;;;;;;5066420;28;20577;-66
2023/03/12 11:39:12;;;;;;;1999.90;999.90;;;12.40;99.90;;;;;;5068789;28;20535;-65
2023/03/12 11:41:56;;;;;;;1999.90;999.90;;;12.60;99.90;;;;;;5055194;28;20466;-67
2023/03/12 11:44:31;;;;;;;1999.90;999.90;;;12.90;99.90;;;;;;5050998;28;20420;-68
2023/03/12 11:47:19;;;;;;;1999.90;999.90;;;13.20;99.90;;;;;;5053071;28;20459;-69
2023/03/12 11:50:01;;;;;;;1999.90;999.90;;;13.20;99.90;;;;;;5053024;28;20450;-69
2023/03/12 11:52:37;;;;;;;1999.90;999.90;;;13.20;99.90;;;;;;5044856;28;20448;-67
2023/03/12 11:55:31;;;;;;;1999.90;999.90;;;13.10;99.90;;;;;;5048050;28;20459;-70
2023/03/12 11:58:11;;;;;;;1999.90;999.90;;;12.60;99.90;;;;;;5049915;28;20444;-69
2023/03/12 12:00:44;;;;;;;1999.90;999.90;;;12.30;99.90;;;;;;5051032;28;20439;-71
2023/03/12 12:03:39;;;;;;;1999.90;999.90;;;11.80;99.90;;;;;;5054469;28;20425;-66
2023/03/12 12:06:12;;;;;;;1999.90;999.90;;;11.40;99.90;;;;;;5052692;28;20452;-67
2023/03/12 12:08:56;;;;;;;1999.90;999.90;;;11.10;99.90;;;;;;5052378;28;20452;-67
2023/03/12 12:11:29;;;;;;;1999.90;999.90;;;11.20;99.90;;;;;;5043403;28;20441;-67
2023/03/12 12:14:13;;;;;;;1999.90;999.90;;;11.40;99.90;;;;;;5051406;28;20540;-67